createdAt,value
2023-03-02T00:01:49.704Z,4.34
2023-03-02T00:04:25.515Z,4.33
2023-03-02T00:06:57.270Z,4.25
2023-03-02T00:09:24.328Z,4.08
2023-03-02T00:11:51.685Z,3.98
2023-03-02T00:14:18.207Z,4.04
2023-03-02T00:16:44.712Z,3.99
2023-03-02T00:19:11.171Z,3.60
2023-03-02T00:21:37.659Z,3.92
2023-03-02T00:24:04.585Z,3.66
2023-03-02T00:26:36.624Z,3.91
2023-03-02T00:29:03.692Z,4.01
2023-03-02T00:31:30.412Z,3.61
2023-03-02T00:33:56.991Z,3.62
2023-03-02T00:36:23.859Z,3.90
2023-03-02T00:38:52.353Z,3.67
2023-03-02T00:41:21.716Z,3.86
2023-03-02T00:43:49.031Z,3.87
2023-03-02T00:46:19.923Z,3.81
2023-03-02T00:48:47.203Z,3.37
2023-03-02T00:51:15.090Z,3.73
2023-03-02T00:53:41.997Z,3.76
2023-03-02T00:56:09.397Z,3.83
2023-03-02T00:58:36.643Z,3.91
2023-03-02T01:01:09.752Z,3.96
2023-03-02T01:03:37.156Z,3.55
2023-03-02T01:06:04.890Z,3.72
2023-03-02T01:08:31.962Z,3.86
2023-03-02T01:11:01.343Z,3.67
2023-03-02T01:13:28.521Z,3.73
2023-03-02T01:16:03.032Z,3.44
2023-03-02T01:18:29.606Z,3.72
2023-03-02T01:21:03.935Z,3.59
2023-03-02T01:23:30.398Z,3.81
2023-03-02T01:25:57.022Z,3.35
2023-03-02T01:28:23.758Z,3.81
2023-03-02T01:30:50.369Z,3.38
2023-03-02T01:33:16.888Z,3.58
2023-03-02T01:35:46.346Z,3.41
2023-03-02T01:38:13.747Z,3.46
2023-03-02T01:40:41.268Z,3.58
2023-03-02T01:43:13.473Z,3.55
2023-03-02T01:45:48.310Z,3.07
2023-03-02T01:48:18.489Z,3.47
2023-03-02T01:50:47.187Z,3.14
2023-03-02T01:53:23.006Z,3.56
2023-03-02T01:55:49.867Z,3.41
2023-03-02T01:58:17.254Z,3.40
2023-03-02T02:00:45.179Z,3.47
2023-03-02T02:03:21.183Z,3.39
2023-03-02T02:06:04.339Z,3.39
2023-03-02T02:08:31.499Z,3.36
2023-03-02T02:10:58.586Z,3.33
2023-03-02T02:13:25.296Z,3.40
2023-03-02T02:15:52.010Z,3.10
2023-03-02T02:18:18.581Z,3.48
2023-03-02T02:20:46.900Z,3.60
2023-03-02T02:23:25.837Z,3.58
2023-03-02T02:25:58.450Z,3.75
2023-03-02T02:28:31.534Z,3.70
2023-03-02T02:31:07.819Z,3.40
2023-03-02T02:33:36.758Z,3.59
2023-03-02T02:36:08.667Z,3.49
2023-03-02T02:38:37.242Z,3.28
2023-03-02T02:41:08.075Z,3.35
2023-03-02T02:43:34.750Z,3.47
2023-03-02T02:46:02.366Z,3.11
2023-03-02T02:48:31.310Z,3.37
2023-03-02T02:51:03.298Z,3.51
2023-03-02T02:53:50.197Z,3.51
2023-03-02T02:56:17.526Z,3.47
2023-03-02T02:58:47.865Z,3.47
2023-03-02T03:01:16.799Z,3.55
2023-03-02T03:03:50.397Z,3.40
2023-03-02T03:06:21.108Z,3.39
2023-03-02T03:08:47.531Z,3.46
2023-03-02T03:11:19.415Z,3.31
2023-03-02T03:13:47.056Z,3.30
2023-03-02T03:16:17.096Z,3.32
2023-03-02T03:18:46.244Z,2.95
2023-03-02T03:21:12.804Z,3.47
2023-03-02T03:23:39.248Z,3.11
2023-03-02T03:26:06.188Z,3.45
2023-03-02T03:28:33.448Z,3.51
2023-03-02T03:31:00.018Z,3.19
2023-03-02T03:33:26.601Z,3.14
2023-03-02T03:35:53.202Z,3.16
2023-03-02T03:38:19.854Z,3.32
2023-03-02T03:40:46.677Z,3.38
2023-03-02T03:43:15.219Z,3.32
2023-03-02T03:45:41.698Z,3.37
2023-03-02T03:48:08.223Z,3.04
2023-03-02T03:50:35.599Z,3.29
2023-03-02T03:53:03.839Z,3.01
2023-03-02T03:55:31.243Z,2.86
2023-03-02T03:57:57.791Z,3.05
2023-03-02T04:00:24.366Z,2.99
2023-03-02T04:02:50.999Z,3.16
2023-03-02T04:05:17.841Z,3.21
2023-03-02T04:07:44.339Z,3.09
2023-03-02T04:10:12.418Z,2.97
2023-03-02T04:12:41.024Z,3.16
2023-03-02T04:15:13.057Z,2.93
2023-03-02T04:17:39.566Z,3.32
2023-03-02T04:20:09.746Z,3.03
2023-03-02T04:22:36.387Z,2.93
2023-03-02T04:25:03.245Z,3.23
2023-03-02T04:27:29.734Z,3.40
2023-03-02T04:29:56.234Z,3.26
2023-03-02T04:32:22.782Z,2.83
2023-03-02T04:34:49.318Z,3.20
2023-03-02T04:37:16.116Z,3.06
2023-03-02T04:39:47.443Z,3.10
2023-03-02T04:42:14.014Z,3.06
2023-03-02T04:44:40.553Z,3.01
2023-03-02T04:47:07.046Z,3.11
2023-03-02T04:49:33.511Z,2.98
2023-03-02T04:52:00.212Z,2.98
2023-03-02T04:54:27.712Z,2.48
2023-03-02T04:56:54.951Z,2.92
2023-03-02T04:59:26.072Z,2.77
2023-03-02T05:01:57.678Z,3.06
2023-03-02T05:04:24.770Z,3.14
2023-03-02T05:06:51.384Z,3.06
2023-03-02T05:09:18.209Z,2.73
2023-03-02T05:11:44.839Z,3.00
2023-03-02T05:14:13.003Z,2.94
2023-03-02T05:16:41.866Z,2.80
2023-03-02T05:19:10.840Z,2.95
2023-03-02T05:21:37.355Z,2.89
2023-03-02T05:24:04.620Z,2.86
2023-03-02T05:26:31.759Z,2.58
2023-03-02T05:28:58.437Z,2.55
2023-03-02T05:31:32.652Z,2.91
2023-03-02T05:33:59.169Z,2.79
2023-03-02T05:36:25.700Z,2.80
2023-03-02T05:38:52.247Z,2.47
2023-03-02T05:41:18.807Z,2.55
2023-03-02T05:43:45.337Z,2.67
2023-03-02T05:46:11.774Z,2.66
2023-03-02T05:48:38.265Z,2.67
2023-03-02T05:51:05.408Z,2.57
2023-03-02T05:53:31.881Z,2.96
2023-03-02T05:55:58.441Z,2.95
2023-03-02T05:58:24.965Z,2.89
2023-03-02T06:00:52.523Z,2.96
2023-03-02T06:03:19.128Z,2.43
2023-03-02T06:05:50.764Z,2.93
2023-03-02T06:08:21.651Z,2.81
2023-03-02T06:10:50.738Z,2.68
2023-03-02T06:13:17.356Z,3.06
2023-03-02T06:15:44.046Z,3.12
2023-03-02T06:18:12.604Z,3.16
2023-03-02T06:20:40.501Z,3.05
2023-03-02T06:23:07.175Z,3.05
2023-03-02T06:25:36.113Z,2.93
2023-03-02T06:28:02.687Z,3.25
2023-03-02T06:30:29.377Z,3.33
2023-03-02T06:32:55.912Z,2.96
2023-03-02T06:35:24.064Z,3.14
2023-03-02T06:37:51.001Z,2.95
2023-03-02T06:40:17.861Z,2.94
2023-03-02T06:42:44.452Z,3.32
2023-03-02T06:45:11.504Z,3.29
2023-03-02T06:47:38.200Z,3.26
2023-03-02T06:50:06.459Z,3.56
2023-03-02T06:52:33.405Z,3.25
2023-03-02T06:55:00.124Z,3.40
2023-03-02T06:57:33.784Z,3.45
2023-03-02T07:00:02.425Z,3.55
2023-03-02T07:02:28.946Z,3.59
2023-03-02T07:04:55.442Z,3.13
2023-03-02T07:07:21.886Z,3.02
2023-03-02T07:09:48.394Z,3.48
2023-03-02T07:12:14.938Z,3.48
2023-03-02T07:14:41.407Z,3.77
2023-03-02T07:17:08.901Z,3.62
2023-03-02T07:19:35.463Z,3.60
2023-03-02T07:22:01.980Z,3.82
2023-03-02T07:24:28.633Z,3.77
2023-03-02T07:26:55.110Z,3.35
2023-03-02T07:29:21.575Z,3.71
2023-03-02T07:31:48.652Z,3.42
2023-03-02T07:34:16.359Z,3.53
2023-03-02T07:36:42.814Z,3.76
2023-03-02T07:39:09.398Z,3.84
2023-03-02T07:41:36.071Z,3.71
2023-03-02T07:44:02.606Z,3.73
2023-03-02T07:46:29.100Z,3.75
2023-03-02T07:48:56.563Z,3.88
2023-03-02T07:51:23.303Z,3.58
2023-03-02T07:53:49.857Z,3.74
2023-03-02T07:56:16.559Z,3.99
2023-03-02T07:58:43.122Z,4.02
2023-03-02T08:01:10.061Z,3.61
2023-03-02T08:03:37.101Z,4.12
2023-03-02T08:06:08.417Z,4.20
2023-03-02T08:08:35.884Z,4.34
2023-03-02T08:11:17.119Z,4.26
2023-03-02T08:13:44.553Z,4.01
2023-03-02T08:16:13.278Z,4.15
2023-03-02T08:18:40.730Z,4.10
2023-03-02T08:21:15.973Z,4.07
2023-03-02T08:23:43.276Z,4.34
2023-03-02T08:26:12.497Z,4.52
2023-03-02T08:28:40.584Z,4.67
2023-03-02T08:31:09.138Z,4.29
2023-03-02T08:33:36.352Z,4.49
2023-03-02T08:36:07.204Z,4.74
2023-03-02T08:38:35.083Z,4.71
2023-03-02T08:41:07.366Z,4.83
2023-03-02T08:43:34.549Z,4.58
2023-03-02T08:46:01.923Z,4.79
2023-03-02T08:48:29.506Z,5.06
2023-03-02T08:50:59.174Z,5.08
2023-03-02T08:53:26.577Z,4.94
2023-03-02T08:55:53.205Z,4.84
2023-03-02T08:58:19.669Z,5.10
2023-03-02T09:00:46.480Z,4.89
2023-03-02T09:03:13.145Z,5.23
2023-03-02T09:05:39.735Z,4.95
2023-03-02T09:08:06.939Z,5.13
2023-03-02T09:10:33.686Z,4.90
2023-03-02T09:13:00.222Z,5.38
2023-03-02T09:15:26.823Z,5.44
2023-03-02T09:17:53.635Z,5.30
2023-03-02T09:20:20.126Z,5.18
2023-03-02T09:22:50.741Z,4.80
2023-03-02T09:25:18.817Z,4.97
2023-03-02T09:27:47.027Z,5.22
2023-03-02T09:30:15.613Z,5.11
2023-03-02T09:32:42.484Z,5.31
2023-03-02T09:35:09.371Z,5.20
2023-03-02T09:37:38.945Z,5.07
2023-03-02T09:40:15.696Z,5.29
2023-03-02T09:43:14.563Z,5.12
2023-03-02T09:45:52.168Z,5.58
2023-03-02T09:48:31.821Z,5.74
2023-03-02T09:51:16.285Z,5.97
2023-03-02T09:54:05.299Z,5.79
2023-03-02T09:56:35.995Z,5.92
2023-03-02T09:59:13.731Z,5.78
2023-03-02T10:01:51.168Z,6.09
2023-03-02T10:04:36.375Z,6.20
2023-03-02T10:07:13.764Z,6.07
2023-03-02T10:09:41.315Z,6.21
2023-03-02T10:12:43.308Z,6.50
2023-03-02T10:15:26.104Z,6.48
2023-03-02T10:18:04.098Z,5.92
2023-03-02T10:20:37.567Z,6.15
2023-03-02T10:23:41.718Z,6.12
2023-03-02T10:26:20.204Z,6.01
2023-03-02T10:29:05.915Z,6.08
2023-03-02T10:31:34.133Z,6.18
2023-03-02T10:34:01.341Z,6.08
2023-03-02T10:36:30.484Z,6.25
2023-03-02T10:39:00.431Z,5.97
2023-03-02T10:41:41.363Z,6.12
2023-03-02T10:44:37.779Z,6.04
2023-03-02T10:47:06.180Z,6.24
2023-03-02T10:49:39.504Z,6.01
2023-03-02T10:52:14.092Z,6.16
2023-03-02T10:54:41.087Z,6.26
2023-03-02T10:57:29.096Z,6.32
2023-03-02T11:00:01.998Z,6.09
2023-03-02T11:02:29.696Z,5.45
2023-03-02T11:05:20.006Z,5.61
2023-03-02T11:08:08.546Z,5.76
2023-03-02T11:10:41.213Z,5.82
2023-03-02T11:13:20.672Z,5.49
2023-03-02T11:15:49.420Z,5.98
2023-03-02T11:18:25.016Z,5.91
2023-03-02T11:21:22.790Z,6.18
2023-03-02T11:24:00.632Z,6.24
2023-03-02T11:26:32.298Z,6.17
2023-03-02T11:29:04.253Z,6.01
2023-03-02T11:31:49.824Z,6.18
2023-03-02T11:34:43.441Z,6.13
2023-03-02T11:37:48.197Z,5.81
2023-03-02T11:40:21.595Z,5.78
2023-03-02T11:42:48.426Z,5.21
2023-03-02T11:45:15.477Z,5.69
2023-03-02T11:48:02.150Z,5.94
2023-03-02T11:50:30.875Z,6.20
2023-03-02T11:53:06.372Z,6.46
2023-03-02T11:55:42.976Z,6.45
2023-03-02T11:58:18.292Z,6.56
2023-03-02T12:00:45.598Z,6.25
2023-03-02T12:03:15.147Z,6.43
2023-03-02T12:05:44.947Z,6.52
2023-03-02T12:08:20.757Z,6.55
2023-03-02T12:11:18.053Z,6.50
2023-03-02T12:13:53.495Z,6.57
2023-03-02T12:16:36.276Z,6.32
2023-03-02T12:19:29.121Z,6.28
2023-03-02T12:22:10.574Z,5.93
2023-03-02T12:24:39.587Z,6.49
2023-03-02T12:27:25.647Z,6.48
2023-03-02T12:29:57.610Z,6.71
2023-03-02T12:32:30.247Z,6.74
2023-03-02T12:35:02.848Z,5.92
2023-03-02T12:37:36.493Z,6.64
2023-03-02T12:40:15.276Z,6.75
2023-03-02T12:43:19.754Z,6.64
2023-03-02T12:46:03.472Z,6.34
2023-03-02T12:48:36.173Z,6.78
2023-03-02T12:51:05.862Z,6.68
2023-03-02T12:53:32.427Z,6.76
2023-03-02T12:55:59.013Z,6.55
2023-03-02T12:58:28.378Z,6.70
2023-03-02T13:00:59.326Z,6.29
2023-03-02T13:03:28.000Z,6.76
2023-03-02T13:06:02.959Z,6.80
2023-03-02T13:08:31.248Z,7.07
2023-03-02T13:11:01.553Z,7.36
2023-03-02T13:13:41.718Z,7.45
2023-03-02T13:16:23.274Z,7.73
2023-03-02T13:18:57.034Z,7.74
2023-03-02T13:21:39.576Z,7.20
2023-03-02T13:24:44.881Z,7.62
2023-03-02T13:27:22.715Z,7.75
2023-03-02T13:29:50.226Z,7.54
2023-03-02T13:32:19.248Z,7.61
2023-03-02T13:34:57.439Z,7.60
2023-03-02T13:37:39.130Z,7.67
2023-03-02T13:40:27.709Z,7.87
2023-03-02T13:42:54.743Z,7.33
2023-03-02T13:45:23.793Z,7.66
2023-03-02T13:47:50.403Z,7.50
2023-03-02T13:50:26.672Z,7.90
2023-03-02T13:52:56.870Z,7.67
2023-03-02T13:55:24.316Z,7.39
2023-03-02T13:57:52.767Z,7.40
2023-03-02T14:00:21.600Z,7.77
2023-03-02T14:02:50.566Z,7.90
2023-03-02T14:05:33.283Z,7.98
2023-03-02T14:08:01.184Z,8.07
2023-03-02T14:10:27.863Z,8.27
2023-03-02T14:13:02.457Z,8.10
2023-03-02T14:15:28.989Z,8.06
2023-03-02T14:17:55.577Z,8.02
2023-03-02T14:20:22.111Z,8.34
2023-03-02T14:22:50.549Z,8.07
2023-03-02T14:25:17.296Z,8.11
2023-03-02T14:27:44.344Z,8.15
2023-03-02T14:30:20.434Z,7.95
2023-03-02T14:32:47.304Z,8.01
2023-03-02T14:35:15.938Z,7.63
2023-03-02T14:37:49.848Z,7.97
2023-03-02T14:40:28.230Z,7.97
2023-03-02T14:42:55.040Z,7.56
2023-03-02T14:45:21.832Z,7.64
2023-03-02T14:47:49.154Z,7.67
2023-03-02T14:50:17.350Z,7.65
2023-03-02T14:52:48.284Z,7.90
2023-03-02T14:55:20.735Z,7.76
2023-03-02T14:57:50.111Z,8.09
2023-03-02T15:00:16.958Z,7.17
2023-03-02T15:02:43.626Z,7.66
2023-03-02T15:05:10.304Z,7.28
2023-03-02T15:07:39.027Z,7.49
2023-03-02T15:10:06.530Z,7.34
2023-03-02T15:12:33.857Z,7.39
2023-03-02T15:15:00.653Z,7.23
2023-03-02T15:17:27.238Z,7.16
2023-03-02T15:19:53.781Z,7.21
2023-03-02T15:22:20.285Z,7.28
2023-03-02T15:24:46.921Z,6.72
2023-03-02T15:27:14.647Z,7.14
2023-03-02T15:29:46.260Z,6.87
2023-03-02T15:32:13.458Z,6.72
2023-03-02T15:34:39.987Z,6.83
2023-03-02T15:37:06.746Z,6.82
2023-03-02T15:39:34.053Z,6.51
2023-03-02T15:42:01.100Z,6.22
2023-03-02T15:44:29.739Z,6.48
2023-03-02T15:46:58.720Z,6.80
2023-03-02T15:49:28.331Z,6.67
2023-03-02T15:51:59.583Z,6.76
2023-03-02T15:54:26.908Z,6.69
2023-03-02T15:56:53.680Z,6.54
2023-03-02T15:59:21.533Z,6.25
2023-03-02T16:01:48.070Z,6.30
2023-03-02T16:04:14.596Z,6.00
2023-03-02T16:06:41.571Z,6.37
2023-03-02T16:09:08.463Z,6.45
2023-03-02T16:11:35.069Z,6.26
2023-03-02T16:14:01.730Z,6.22
2023-03-02T16:16:28.578Z,6.29
2023-03-02T16:18:57.384Z,6.26
2023-03-02T16:21:25.709Z,6.25
2023-03-02T16:23:55.645Z,6.27
2023-03-02T16:26:22.730Z,6.31
2023-03-02T16:28:49.413Z,6.30
2023-03-02T16:31:20.169Z,6.26
2023-03-02T16:33:47.633Z,6.18
2023-03-02T16:36:14.800Z,5.99
2023-03-02T16:38:41.877Z,5.97
2023-03-02T16:41:14.579Z,6.09
2023-03-02T16:43:55.816Z,6.10
2023-03-02T16:46:24.430Z,5.76
2023-03-02T16:48:51.956Z,5.94
2023-03-02T16:51:20.985Z,5.77
2023-03-02T16:53:47.644Z,5.59
2023-03-02T16:56:15.101Z,5.95
2023-03-02T16:58:42.916Z,5.75
2023-03-02T17:01:12.503Z,5.86
2023-03-02T17:03:39.089Z,5.76
2023-03-02T17:06:07.873Z,5.95
2023-03-02T17:08:34.956Z,5.99
2023-03-02T17:11:01.764Z,5.98
2023-03-02T17:13:28.510Z,5.88
2023-03-02T17:15:55.166Z,5.94
2023-03-02T17:18:21.721Z,5.97
2023-03-02T17:20:52.560Z,5.91
2023-03-02T17:23:19.121Z,5.92
2023-03-02T17:25:45.660Z,5.98
2023-03-02T17:28:12.705Z,6.02
2023-03-02T17:30:39.879Z,5.93
2023-03-02T17:33:06.643Z,5.93
2023-03-02T17:35:33.200Z,5.72
2023-03-02T17:38:03.032Z,5.16
2023-03-02T17:40:29.717Z,5.63
2023-03-02T17:42:57.763Z,5.50
2023-03-02T17:45:26.660Z,5.90
2023-03-02T17:47:54.558Z,5.38
2023-03-02T17:50:22.427Z,5.87
2023-03-02T17:52:49.723Z,5.90
2023-03-02T17:55:17.022Z,5.92
2023-03-02T17:57:43.574Z,5.86
2023-03-02T18:00:14.419Z,5.74
2023-03-02T18:02:41.068Z,5.23
2023-03-02T18:05:10.107Z,5.92
2023-03-02T18:07:37.182Z,5.96
2023-03-02T18:10:05.082Z,5.99
2023-03-02T18:12:31.770Z,5.93
2023-03-02T18:14:58.328Z,5.62
2023-03-02T18:17:24.925Z,6.00
2023-03-02T18:19:51.517Z,5.66
2023-03-02T18:22:18.085Z,6.06
2023-03-02T18:24:44.590Z,6.07
2023-03-02T18:27:11.172Z,5.47
2023-03-02T18:29:37.726Z,5.62
2023-03-02T18:32:04.391Z,5.80
2023-03-02T18:34:30.931Z,5.89
2023-03-02T18:36:57.568Z,5.61
2023-03-02T18:39:24.111Z,5.85
2023-03-02T18:41:50.650Z,5.76
2023-03-02T18:44:17.815Z,5.72
2023-03-02T18:46:44.341Z,5.74
2023-03-02T18:49:11.080Z,5.54
2023-03-02T18:51:37.913Z,5.81
2023-03-02T18:54:05.218Z,5.77
2023-03-02T18:56:31.747Z,5.82
2023-03-02T18:58:58.395Z,5.84
2023-03-02T19:01:26.287Z,5.86
2023-03-02T19:03:56.905Z,5.88
2023-03-02T19:06:23.592Z,5.66
2023-03-02T19:08:50.146Z,5.46
2023-03-02T19:11:16.708Z,5.73
2023-03-02T19:13:43.202Z,5.56
2023-03-02T19:16:09.769Z,5.63
2023-03-02T19:18:37.926Z,5.41
2023-03-02T19:21:05.394Z,5.24
2023-03-02T19:23:33.120Z,5.24
2023-03-02T19:26:00.594Z,5.42
2023-03-02T19:28:27.722Z,5.33
2023-03-02T19:30:54.225Z,5.09
2023-03-02T19:33:20.769Z,4.76
2023-03-02T19:35:47.363Z,5.08
2023-03-02T19:38:13.894Z,5.01
2023-03-02T19:40:40.524Z,4.60
2023-03-02T19:43:07.116Z,4.43
2023-03-02T19:45:34.998Z,4.61
2023-03-02T19:48:02.996Z,4.62
2023-03-02T19:50:30.293Z,4.66
2023-03-02T19:52:58.178Z,4.53
2023-03-02T19:55:25.818Z,4.53
2023-03-02T19:57:59.590Z,3.01
2023-03-02T20:00:28.529Z,4.20
2023-03-02T20:02:55.373Z,4.41
2023-03-02T20:05:21.919Z,4.28
2023-03-02T20:07:48.375Z,4.37
2023-03-02T20:10:43.315Z,4.31
2023-03-02T20:13:10.805Z,3.89
2023-03-02T20:15:40.898Z,4.14
2023-03-02T20:18:14.794Z,3.99
2023-03-02T20:20:42.274Z,3.99
2023-03-02T20:23:09.018Z,3.97
2023-03-02T20:25:36.579Z,3.96
2023-03-02T20:28:05.914Z,3.59
2023-03-02T20:30:39.938Z,3.88
2023-03-02T20:33:08.035Z,3.87
2023-03-02T20:35:37.755Z,3.77
2023-03-02T20:38:06.262Z,3.76
2023-03-02T20:40:34.075Z,3.84
2023-03-02T20:43:01.084Z,3.86
2023-03-02T20:45:28.403Z,3.90
2023-03-02T20:47:55.537Z,3.36
2023-03-02T20:50:25.402Z,3.74
2023-03-02T20:52:51.994Z,3.69
2023-03-02T20:55:19.331Z,3.70
2023-03-02T20:57:46.131Z,3.69
2023-03-02T21:00:21.090Z,3.63
2023-03-02T21:02:48.449Z,3.13
2023-03-02T21:05:15.740Z,3.60
2023-03-02T21:07:43.088Z,3.47
2023-03-02T21:10:13.418Z,3.46
2023-03-02T21:12:40.061Z,3.41
2023-03-02T21:15:07.245Z,3.40
2023-03-02T21:17:33.871Z,3.03
2023-03-02T21:20:00.356Z,3.38
2023-03-02T21:22:27.213Z,3.30
2023-03-02T21:24:53.966Z,3.01
2023-03-02T21:27:21.114Z,3.22
2023-03-02T21:29:48.798Z,3.22
2023-03-02T21:32:15.556Z,3.10
2023-03-02T21:34:42.273Z,3.13
2023-03-02T21:37:08.794Z,2.59
2023-03-02T21:39:35.366Z,2.85
2023-03-02T21:42:01.852Z,2.58
2023-03-02T21:44:28.380Z,2.89
2023-03-02T21:46:55.087Z,2.88
2023-03-02T21:49:23.179Z,2.91
2023-03-02T21:51:50.992Z,2.57
2023-03-02T21:54:17.618Z,2.30
2023-03-02T21:56:44.569Z,2.61
2023-03-02T21:59:12.364Z,2.97
2023-03-02T22:01:38.851Z,2.97
2023-03-02T22:04:05.759Z,2.90
2023-03-02T22:06:34.233Z,2.98
2023-03-02T22:09:01.673Z,2.96
2023-03-02T22:11:32.713Z,2.94
2023-03-02T22:14:02.443Z,3.02
2023-03-02T22:16:38.270Z,2.97
2023-03-02T22:19:20.507Z,2.92
2023-03-02T22:21:50.628Z,2.77
2023-03-02T22:24:25.798Z,2.43
2023-03-02T22:27:04.639Z,2.80
2023-03-02T22:29:44.716Z,2.86
2023-03-02T22:32:19.130Z,2.84
2023-03-02T22:34:47.656Z,2.79
2023-03-02T22:37:20.439Z,2.83
2023-03-02T22:39:48.428Z,2.83
2023-03-02T22:42:20.648Z,2.86
2023-03-02T22:45:22.633Z,2.91
2023-03-02T22:47:51.504Z,2.74
2023-03-02T22:50:22.635Z,2.83
2023-03-02T22:52:49.993Z,2.77
2023-03-02T22:55:36.888Z,2.81
2023-03-02T22:58:27.176Z,2.82
2023-03-02T23:00:54.006Z,2.42
2023-03-02T23:03:23.630Z,2.31
2023-03-02T23:05:52.820Z,2.63
2023-03-02T23:08:24.285Z,2.62
2023-03-02T23:10:53.983Z,2.47
2023-03-02T23:13:25.179Z,2.67
2023-03-02T23:15:53.426Z,2.47
2023-03-02T23:18:24.410Z,2.83
2023-03-02T23:20:51.948Z,2.38
2023-03-02T23:23:19.879Z,2.79
2023-03-02T23:25:46.768Z,2.82
2023-03-02T23:28:13.312Z,2.51
2023-03-02T23:30:39.801Z,2.72
2023-03-02T23:33:07.090Z,2.78
2023-03-02T23:35:33.682Z,2.49
2023-03-02T23:38:01.585Z,2.52
2023-03-02T23:40:29.286Z,2.20
2023-03-02T23:42:56.081Z,2.56
2023-03-02T23:45:22.709Z,2.64
2023-03-02T23:47:49.280Z,2.39
2023-03-02T23:50:16.266Z,2.70
2023-03-02T23:52:42.970Z,2.76
2023-03-02T23:55:10.108Z,2.84
2023-03-02T23:57:36.834Z,2.82
